Time;durP1;ratioP1;P1;durP2;ratioP2;P2;SDS_P1;SDS_P2;PMS_P1;PMS_P2;Temp;Humidity;BMP_temperature;BMP_pressure;BME280_temperature;BME280_humidity;BME280_pressure;Samples;Min_cycle;Max_cycle;Signal;HPM_P1;HPM_P2
2021/07/22 00:00:25;;;;;;;10.82;9.38;;;11.00;99.90;;;;;;5076495;28;20503;-81
2021/07/22 00:02:52;;;;;;;11.43;10.20;;;11.00;99.90;;;;;;5075027;28;20052;-82
2021/07/22 00:05:19;;;;;;;16.40;11.10;;;10.90;99.90;;;;;;5075021;28;20404;-81
2021/07/22 00:07:47;;;;;;;16.45;10.57;;;10.80;99.90;;;;;;5075943;28;20041;-81
2021/07/22 00:10:15;;;;;;;12.43;10.07;;;10.70;99.90;;;;;;5075002;28;20050;-81
2021/07/22 00:12:42;;;;;;;14.10;10.45;;;10.70;99.90;;;;;;5075946;28;20131;-81
2021/07/22 00:15:10;;;;;;;13.38;10.20;;;10.90;99.90;;;;;;5074849;28;20053;-81
2021/07/22 00:17:37;;;;;;;13.75;10.50;;;10.90;99.90;;;;;;5074543;28;20056;-81
2021/07/22 00:20:05;;;;;;;13.48;10.05;;;10.90;99.90;;;;;;5074707;28;20406;-82
2021/07/22 00:22:37;;;;;;;15.50;10.90;;;10.90;99.90;;;;;;5076034;28;20072;-81
2021/07/22 00:25:08;;;;;;;13.70;10.52;;;10.70;99.90;;;;;;5074619;28;20515;-82
2021/07/22 00:27:35;;;;;;;18.77;10.57;;;10.60;99.90;;;;;;5075842;28;20048;-81
2021/07/22 00:30:02;;;;;;;16.77;10.50;;;10.70;99.90;;;;;;5074813;28;20071;-81
2021/07/22 00:32:29;;;;;;;13.77;10.90;;;10.70;99.90;;;;;;5074519;28;20489;-81
2021/07/22 00:34:56;;;;;;;13.15;10.27;;;10.80;99.90;;;;;;5075672;28;20054;-81
2021/07/22 00:37:22;;;;;;;14.07;10.95;;;10.90;99.90;;;;;;5074384;28;20048;-81
2021/07/22 00:39:49;;;;;;;15.63;10.15;;;10.80;99.90;;;;;;5075391;28;20059;-81
2021/07/22 00:42:16;;;;;;;12.68;9.52;;;10.70;99.90;;;;;;5074438;28;20051;-81
2021/07/22 00:44:43;;;;;;;13.13;9.75;;;10.80;99.90;;;;;;5075422;28;20048;-81
2021/07/22 00:47:09;;;;;;;15.25;10.35;;;10.80;99.90;;;;;;5075502;28;20051;-81
2021/07/22 00:49:36;;;;;;;11.98;9.75;;;10.80;99.90;;;;;;5074885;28;20123;-81
2021/07/22 00:52:03;;;;;;;12.60;10.20;;;10.80;99.90;;;;;;5075413;28;20055;-81
2021/07/22 00:54:30;;;;;;;13.75;10.63;;;10.80;99.90;;;;;;5074029;28;20048;-81
2021/07/22 00:56:57;;;;;;;20.60;11.38;;;10.70;99.90;;;;;;5074207;28;20044;-82
2021/07/22 00:59:23;;;;;;;16.90;11.00;;;10.60;99.90;;;;;;5074115;28;20400;-81
2021/07/22 01:01:50;;;;;;;14.52;11.57;;;10.70;99.90;;;;;;5073971;28;20049;-82
2021/07/22 01:04:18;;;;;;;15.15;11.13;;;10.60;99.90;;;;;;5074023;28;20052;-81
2021/07/22 01:06:45;;;;;;;18.23;11.07;;;10.60;99.90;;;;;;5074035;28;20040;-81
2021/07/22 01:09:12;;;;;;;19.08;12.77;;;10.60;99.90;;;;;;5074031;28;20098;-81
2021/07/22 01:11:38;;;;;;;15.93;11.85;;;10.60;99.90;;;;;;5074863;28;20045;-81
2021/07/22 01:14:05;;;;;;;18.77;12.25;;;10.60;99.90;;;;;;5077476;28;20059;-81
2021/07/22 01:16:32;;;;;;;14.35;10.68;;;10.70;99.90;;;;;;5091764;28;20052;-80
2021/07/22 01:19:00;;;;;;;14.60;11.25;;;10.70;99.90;;;;;;5075429;28;20079;-81
2021/07/22 01:21:27;;;;;;;14.70;11.70;;;10.70;99.90;;;;;;5074689;28;20087;-81
2021/07/22 01:23:54;;;;;;;17.08;12.98;;;10.60;99.90;;;;;;5074536;28;20477;-81
2021/07/22 01:26:20;;;;;;;18.75;13.02;;;10.60;99.90;;;;;;5073237;28;20053;-81
2021/07/22 01:28:47;;;;;;;17.15;12.50;;;10.80;99.90;;;;;;5074631;28;20051;-81
2021/07/22 01:31:14;;;;;;;16.83;12.00;;;10.90;99.90;;;;;;5074762;28;20413;-81
2021/07/22 01:33:42;;;;;;;16.90;11.70;;;11.00;99.90;;;;;;5074654;28;20052;-81
2021/07/22 01:36:09;;;;;;;17.42;12.55;;;11.00;99.90;;;;;;5073144;28;20075;-81
2021/07/22 01:38:36;;;;;;;18.95;12.70;;;11.10;99.90;;;;;;5074488;28;20045;-81
2021/07/22 01:41:04;;;;;;;15.30;12.27;;;11.20;99.90;;;;;;5074260;28;20408;-81
2021/07/22 01:43:31;;;;;;;15.55;13.05;;;11.30;99.90;;;;;;5073058;28;20079;-81
2021/07/22 01:45:58;;;;;;;18.27;11.52;;;11.30;99.90;;;;;;5074240;28;20056;-81
2021/07/22 01:48:25;;;;;;;15.25;11.57;;;11.30;99.90;;;;;;5073142;28;20080;-81
2021/07/22 01:50:51;;;;;;;14.13;11.05;;;11.30;99.90;;;;;;5072923;28;20055;-81
2021/07/22 01:53:18;;;;;;;17.63;12.35;;;11.40;99.90;;;;;;5074043;28;20051;-81
2021/07/22 01:55:46;;;;;;;15.38;10.73;;;11.40;99.90;;;;;;5073943;28;20052;-81
2021/07/22 01:58:13;;;;;;;15.80;11.30;;;11.40;99.90;;;;;;5072851;28;20123;-81
2021/07/22 02:00:40;;;;;;;16.13;11.60;;;11.40;99.90;;;;;;5072414;28;20457;-81
2021/07/22 02:03:07;;;;;;;13.30;10.90;;;11.40;99.90;;;;;;5072885;28;20044;-81
2021/07/22 02:05:34;;;;;;;16.13;11.52;;;11.40;99.90;;;;;;5072737;28;20452;-81
2021/07/22 02:08:00;;;;;;;15.13;11.40;;;11.40;99.90;;;;;;5072568;28;20053;-81
2021/07/22 02:10:27;;;;;;;14.75;11.15;;;11.40;99.90;;;;;;5072631;28;20053;-81
2021/07/22 02:12:54;;;;;;;13.93;10.95;;;11.40;99.90;;;;;;5072464;28;20040;-80
2021/07/22 02:15:20;;;;;;;13.93;11.15;;;11.40;99.90;;;;;;5072286;28;20055;-81
2021/07/22 02:17:47;;;;;;;14.18;11.20;;;11.50;99.90;;;;;;5072044;28;20390;-80
2021/07/22 02:20:14;;;;;;;12.93;9.98;;;11.60;99.90;;;;;;5073525;28;20055;-80
2021/07/22 02:22:41;;;;;;;16.98;11.05;;;11.60;99.90;;;;;;5072292;28;20052;-81
2021/07/22 02:25:08;;;;;;;15.52;11.50;;;11.70;99.90;;;;;;5073673;28;20090;-80
2021/07/22 02:27:35;;;;;;;12.00;10.00;;;11.60;99.90;;;;;;5072316;28;20047;-80
2021/07/22 02:30:04;;;;;;;14.10;12.23;;;11.50;99.90;;;;;;5072400;28;20420;-81
2021/07/22 02:32:31;;;;;;;16.80;11.45;;;11.50;99.90;;;;;;5076325;28;20079;-81
2021/07/22 02:34:58;;;;;;;16.30;11.43;;;11.50;99.90;;;;;;5088288;28;20463;-81
2021/07/22 02:37:24;;;;;;;18.35;12.05;;;11.60;99.90;;;;;;5072852;28;20197;-81
2021/07/22 02:39:51;;;;;;;18.80;11.18;;;11.60;99.90;;;;;;5071976;28;20128;-82
2021/07/22 02:42:18;;;;;;;16.75;11.52;;;11.60;99.90;;;;;;5072208;28;20048;-82
2021/07/22 02:44:44;;;;;;;14.27;11.13;;;11.60;99.90;;;;;;5071964;28;20401;-81
2021/07/22 02:47:11;;;;;;;15.95;11.45;;;11.60;99.90;;;;;;5072125;28;20052;-81
2021/07/22 02:49:39;;;;;;;17.35;12.60;;;11.70;99.90;;;;;;5072963;28;20048;-82
2021/07/22 02:52:07;;;;;;;17.95;11.38;;;11.70;99.90;;;;;;5071827;28;20049;-81
2021/07/22 02:54:35;;;;;;;15.02;11.80;;;11.70;99.90;;;;;;5071793;28;20509;-81
2021/07/22 02:57:02;;;;;;;13.77;11.20;;;11.80;99.90;;;;;;5071932;28;20135;-81
2021/07/22 02:59:29;;;;;;;16.65;11.27;;;11.80;99.90;;;;;;5071960;28;20078;-81
2021/07/22 03:01:55;;;;;;;14.38;10.75;;;11.90;99.90;;;;;;5072681;28;20048;-81
2021/07/22 03:04:23;;;;;;;12.30;10.60;;;11.90;99.90;;;;;;5073037;28;20041;-80
2021/07/22 03:06:50;;;;;;;10.85;9.75;;;12.00;99.90;;;;;;5071748;28;20401;-81
2021/07/22 03:09:16;;;;;;;16.70;11.43;;;12.10;99.90;;;;;;5071789;28;20053;-81
2021/07/22 03:11:43;;;;;;;13.68;11.27;;;12.00;99.90;;;;;;5072835;28;20052;-81
2021/07/22 03:14:10;;;;;;;13.38;11.10;;;11.90;99.90;;;;;;5071575;28;20084;-81
2021/07/22 03:16:37;;;;;;;15.40;12.18;;;11.90;99.90;;;;;;5072691;28;20056;-81
2021/07/22 03:19:04;;;;;;;13.73;11.05;;;11.90;99.90;;;;;;5072703;28;20067;-81
2021/07/22 03:21:31;;;;;;;13.30;10.18;;;11.90;99.90;;;;;;5072731;28;20059;-81
2021/07/22 03:23:58;;;;;;;13.55;10.57;;;11.90;99.90;;;;;;5071665;28;20102;-81
2021/07/22 03:26:24;;;;;;;11.30;9.95;;;12.10;99.90;;;;;;5071484;28;20055;-81
2021/07/22 03:28:51;;;;;;;14.65;11.00;;;12.20;99.90;;;;;;5071465;28;20045;-81
2021/07/22 03:31:18;;;;;;;12.77;10.95;;;12.20;99.90;;;;;;5071374;28;20401;-81
2021/07/22 03:33:44;;;;;;;12.02;10.77;;;12.20;99.90;;;;;;5072583;28;20075;-81
2021/07/22 03:36:11;;;;;;;14.90;10.45;;;12.30;99.90;;;;;;5072713;28;20045;-81
2021/07/22 03:38:38;;;;;;;12.15;10.60;;;12.30;99.90;;;;;;5072439;28;20529;-81
2021/07/22 03:41:04;;;;;;;14.00;10.93;;;12.30;99.90;;;;;;5071439;28;20461;-81
2021/07/22 03:43:31;;;;;;;13.40;11.18;;;12.30;99.90;;;;;;5072488;28;20082;-82
2021/07/22 03:45:59;;;;;;;17.48;11.48;;;12.30;99.90;;;;;;5071322;28;20052;-81
2021/07/22 03:48:26;;;;;;;10.82;9.32;;;12.30;99.90;;;;;;5071488;28;20527;-81
2021/07/22 03:50:53;;;;;;;12.75;9.82;;;12.40;99.90;;;;;;5077270;28;20107;-81
2021/07/22 03:53:19;;;;;;;11.65;9.88;;;12.40;99.90;;;;;;5086246;28;20076;-81
2021/07/22 03:55:46;;;;;;;11.63;9.18;;;12.50;99.90;;;;;;5073165;28;20048;-81
2021/07/22 03:58:14;;;;;;;12.35;9.82;;;12.40;99.90;;;;;;5071314;28;20501;-81
2021/07/22 04:00:41;;;;;;;11.13;9.93;;;12.50;99.90;;;;;;5072252;28;20056;-81
2021/07/22 04:03:08;;;;;;;13.48;10.10;;;12.50;99.90;;;;;;5072567;28;20041;-81
2021/07/22 04:05:35;;;;;;;14.10;10.40;;;12.50;99.90;;;;;;5070991;28;20102;-82
2021/07/22 04:08:02;;;;;;;13.05;10.18;;;12.60;99.90;;;;;;5072380;28;20047;-81
2021/07/22 04:10:29;;;;;;;13.85;10.35;;;12.60;99.90;;;;;;5071176;28;20051;-81
2021/07/22 04:13:00;;;;;;;13.20;9.77;;;12.60;99.90;;;;;;5070910;28;20511;-82
2021/07/22 04:15:29;;;;;;;16.20;9.55;;;12.70;99.90;;;;;;5071047;28;20048;-81
2021/07/22 04:17:57;;;;;;;13.90;10.93;;;12.70;99.90;;;;;;5071035;28;20481;-81
2021/07/22 04:20:25;;;;;;;14.50;10.25;;;12.70;99.90;;;;;;5071013;28;20048;-81
2021/07/22 04:22:55;;;;;;;11.43;9.77;;;12.80;99.90;;;;;;5072270;28;20057;-81
2021/07/22 04:25:22;;;;;;;13.45;10.07;;;12.90;99.90;;;;;;5072553;28;20453;-81
2021/07/22 04:27:49;;;;;;;10.88;9.70;;;13.10;99.90;;;;;;5074579;28;20153;-81
2021/07/22 04:30:15;;;;;;;15.63;10.07;;;13.10;99.90;;;;;;5074717;28;20052;-82
2021/07/22 04:32:46;;;;;;;14.00;8.75;;;13.20;99.90;;;;;;5075602;28;20568;-81
2021/07/22 04:35:14;;;;;;;14.57;8.55;;;13.20;99.90;;;;;;5074563;28;20067;-82
2021/07/22 04:37:41;;;;;;;11.32;9.48;;;13.30;99.90;;;;;;5074357;28;20131;-82
2021/07/22 04:40:08;;;;;;;14.00;9.00;;;13.30;99.90;;;;;;5074181;28;20519;-82
2021/07/22 04:42:35;;;;;;;11.15;9.70;;;13.40;99.90;;;;;;5074295;28;20071;-82
2021/07/22 04:45:03;;;;;;;11.13;9.88;;;13.40;99.90;;;;;;5074426;28;20045;-82
2021/07/22 04:47:29;;;;;;;15.05;9.05;;;13.60;99.90;;;;;;5074352;28;20472;-81
2021/07/22 04:49:56;;;;;;;10.05;8.70;;;13.60;99.90;;;;;;5074225;28;20055;-82
2021/07/22 04:52:23;;;;;;;10.02;8.43;;;13.70;99.90;;;;;;5075399;28;20061;-81
2021/07/22 04:54:50;;;;;;;9.98;8.43;;;13.80;99.90;;;;;;5075372;28;20405;-81
2021/07/22 04:57:17;;;;;;;10.73;8.77;;;13.90;99.90;;;;;;5075188;28;20051;-81
2021/07/22 04:59:44;;;;;;;9.32;8.32;;;13.90;99.90;;;;;;5073928;28;20052;-81
2021/07/22 05:02:11;;;;;;;13.93;8.98;;;14.00;99.90;;;;;;5075242;28;20048;-82
2021/07/22 05:04:38;;;;;;;12.35;9.30;;;14.00;99.90;;;;;;5075811;28;20048;-81
2021/07/22 05:07:05;;;;;;;11.02;8.95;;;14.00;99.90;;;;;;5075311;28;20056;-81
2021/07/22 05:09:32;;;;;;;9.57;8.23;;;14.10;99.90;;;;;;5089902;28;20048;-81
2021/07/22 05:11:59;;;;;;;9.95;8.80;;;14.10;99.90;;;;;;5080518;28;20080;-81
2021/07/22 05:14:26;;;;;;;10.00;8.82;;;14.20;99.90;;;;;;5074963;28;20135;-81
2021/07/22 05:16:53;;;;;;;11.55;8.70;;;14.30;99.90;;;;;;5073528;28;20396;-80
2021/07/22 05:19:21;;;;;;;11.02;8.65;;;14.30;99.90;;;;;;5073351;28;20136;-81
2021/07/22 05:21:48;;;;;;;9.70;8.63;;;14.50;99.90;;;;;;5074231;28;20052;-81
2021/07/22 05:24:15;;;;;;;10.02;8.82;;;14.60;99.90;;;;;;5073460;28;20084;-81
2021/07/22 05:26:42;;;;;;;11.82;8.20;;;14.70;99.90;;;;;;5073183;28;20048;-81
2021/07/22 05:29:10;;;;;;;11.23;8.50;;;14.90;99.90;;;;;;5074691;28;20094;-81
2021/07/22 05:31:41;;;;;;;11.68;8.52;;;14.90;99.90;;;;;;5073153;28;20409;-81
2021/07/22 05:34:11;;;;;;;10.82;9.02;;;15.00;99.90;;;;;;5074287;28;20079;-81
2021/07/22 05:36:40;;;;;;;12.75;9.05;;;15.10;99.90;;;;;;5072996;28;20044;-81
2021/07/22 05:39:07;;;;;;;10.98;8.82;;;15.30;99.90;;;;;;5072990;28;20416;-81
2021/07/22 05:41:37;;;;;;;9.57;7.93;;;15.50;99.90;;;;;;5074072;28;20105;-81
2021/07/22 05:44:04;;;;;;;9.30;8.40;;;15.70;99.90;;;;;;5073950;28;20068;-81
2021/07/22 05:46:32;;;;;;;9.30;8.00;;;15.70;99.90;;;;;;5072749;28;20067;-82
2021/07/22 05:48:59;;;;;;;9.38;8.43;;;15.90;99.90;;;;;;5072840;28;20094;-81
2021/07/22 05:51:26;;;;;;;11.70;8.20;;;16.00;99.90;;;;;;5072816;28;20169;-81
2021/07/22 05:53:53;;;;;;;10.05;8.15;;;16.20;99.90;;;;;;5073715;28;20560;-82
2021/07/22 05:56:19;;;;;;;12.18;7.80;;;16.50;99.90;;;;;;5072592;28;20135;-81
2021/07/22 05:58:46;;;;;;;10.07;8.50;;;16.80;99.90;;;;;;5072849;28;20048;-81
2021/07/22 06:01:13;;;;;;;9.15;8.20;;;17.00;99.90;;;;;;5072561;28;20485;-80
2021/07/22 06:03:40;;;;;;;10.43;8.13;;;17.20;99.90;;;;;;5072636;28;20484;-81
2021/07/22 06:06:07;;;;;;;10.30;7.43;;;17.30;99.90;;;;;;5073603;28;20080;-81
2021/07/22 06:08:35;;;;;;;10.05;7.78;;;17.30;99.90;;;;;;5072336;28;20048;-81
2021/07/22 06:11:06;;;;;;;11.68;8.20;;;17.40;99.90;;;;;;5073577;28;20048;-80
2021/07/22 06:13:36;;;;;;;9.43;8.45;;;17.50;99.90;;;;;;5072294;28;20056;-81
2021/07/22 06:16:07;;;;;;;10.85;8.20;;;17.60;99.90;;;;;;5072112;28;20056;-81
2021/07/22 06:18:34;;;;;;;8.35;7.38;;;18.10;99.90;;;;;;5073096;28;20143;-81
2021/07/22 06:21:01;;;;;;;11.65;8.07;;;18.40;99.90;;;;;;5072250;28;20052;-81
2021/07/22 06:23:28;;;;;;;11.38;8.18;;;18.80;99.90;;;;;;5072156;28;20044;-81
2021/07/22 06:25:59;;;;;;;8.07;7.28;;;19.70;99.90;;;;;;5071989;28;20067;-81
2021/07/22 06:28:26;;;;;;;10.55;8.10;;;20.30;99.90;;;;;;5080919;28;20104;-81
2021/07/22 06:30:54;;;;;;;9.38;7.93;;;20.50;99.90;;;;;;5078359;28;20051;-81
2021/07/22 06:33:21;;;;;;;11.10;7.78;;;20.40;99.90;;;;;;5071982;28;20052;-81
2021/07/22 06:35:48;;;;;;;19.92;9.25;;;20.50;99.90;;;;;;5071819;28;20117;-81
2021/07/22 06:38:15;;;;;;;15.35;8.30;;;20.50;99.90;;;;;;5071824;28;20056;-81
2021/07/22 06:40:42;;;;;;;13.18;9.05;;;20.60;99.90;;;;;;5072814;28;20044;-82
2021/07/22 06:43:10;;;;;;;16.52;8.35;;;20.90;99.90;;;;;;5072897;28;20059;-82
2021/07/22 06:45:39;;;;;;;15.85;8.20;;;22.30;99.90;;;;;;5071694;28;20051;-81
2021/07/22 06:48:07;;;;;;;18.80;8.15;;;22.90;99.90;;;;;;5071266;28;20056;-81
2021/07/22 06:50:34;;;;;;;24.25;9.02;;;23.20;99.90;;;;;;5071861;28;20068;-82
2021/07/22 06:53:02;;;;;;;12.88;7.95;;;23.20;99.90;;;;;;5071604;28;20059;-81
2021/07/22 06:55:30;;;;;;;15.07;8.20;;;23.00;99.90;;;;;;5071523;28;20520;-81
2021/07/22 06:58:02;;;;;;;11.48;8.10;;;23.00;99.90;;;;;;5071555;28;20070;-82
2021/07/22 07:00:29;;;;;;;9.05;7.93;;;23.30;99.90;;;;;;5072847;28;20059;-81
2021/07/22 07:02:55;;;;;;;23.50;8.70;;;23.70;99.90;;;;;;5071406;28;20054;-82
2021/07/22 07:05:22;;;;;;;14.02;8.68;;;23.80;99.90;;;;;;5071449;28;20523;-82
2021/07/22 07:07:49;;;;;;;25.88;10.02;;;24.20;99.90;;;;;;5071471;28;20123;-82
2021/07/22 07:10:15;;;;;;;24.27;10.38;;;23.50;99.90;;;;;;5071363;28;20411;-82
2021/07/22 07:12:42;;;;;;;22.20;9.70;;;23.80;99.90;;;;;;5072581;28;20056;-82
2021/07/22 07:15:09;;;;;;;15.73;8.43;;;24.00;99.90;;;;;;5071410;28;20123;-82
2021/07/22 07:17:36;;;;;;;13.20;8.35;;;24.80;99.90;;;;;;5071244;28;20499;-81
2021/07/22 07:20:03;;;;;;;13.90;7.80;;;26.90;99.90;;;;;;5072712;28;20052;-82
2021/07/22 07:22:30;;;;;;;11.50;7.28;;;28.90;91.60;;;;;;5071481;28;20088;-82
2021/07/22 07:24:56;;;;;;;12.80;7.70;;;29.90;87.30;;;;;;5072753;28;20044;-82
2021/07/22 07:27:23;;;;;;;6.75;5.97;;;30.80;79.50;;;;;;5072783;28;20565;-82
2021/07/22 07:29:50;;;;;;;8.25;6.38;;;30.10;72.60;;;;;;5071409;28;20044;-83
2021/07/22 07:32:17;;;;;;;8.25;6.85;;;29.50;75.30;;;;;;5071531;28;20607;-82
2021/07/22 07:34:44;;;;;;;11.63;6.38;;;29.10;75.60;;;;;;5072659;28;20080;-82
2021/07/22 07:37:11;;;;;;;6.15;5.53;;;29.30;74.50;;;;;;5072570;28;20048;-82
2021/07/22 07:39:38;;;;;;;8.52;5.18;;;30.10;74.40;;;;;;5072531;28;20072;-81
2021/07/22 07:42:04;;;;;;;7.80;5.65;;;30.50;72.70;;;;;;5071189;28;20044;-82
2021/07/22 07:44:31;;;;;;;6.38;5.60;;;30.10;71.90;;;;;;5071571;28;20052;-82
2021/07/22 07:46:58;;;;;;;10.40;6.50;;;30.00;71.90;;;;;;5082665;28;20052;-81
2021/07/22 07:49:25;;;;;;;7.40;5.53;;;29.20;72.60;;;;;;5080132;28;20064;-81
2021/07/22 07:51:51;;;;;;;10.50;5.63;;;28.70;74.80;;;;;;5071678;28;20054;-82
2021/07/22 07:54:22;;;;;;;9.15;6.00;;;28.80;74.90;;;;;;5071429;28;20048;-82
2021/07/22 07:56:49;;;;;;;9.90;5.82;;;29.10;73.50;;;;;;5071410;28;20052;-82
2021/07/22 07:59:17;;;;;;;6.28;5.65;;;29.20;74.80;;;;;;5072674;28;20135;-81
2021/07/22 08:01:44;;;;;;;8.75;5.40;;;29.50;73.50;;;;;;5074847;28;20408;-82
2021/07/22 08:04:11;;;;;;;5.80;5.30;;;30.20;73.10;;;;;;5075053;28;20055;-82
2021/07/22 08:06:38;;;;;;;6.90;4.88;;;31.10;73.00;;;;;;5075900;28;20049;-82
2021/07/22 08:09:04;;;;;;;9.98;5.50;;;32.10;68.70;;;;;;5074965;28;20056;-81
2021/07/22 08:11:31;;;;;;;9.27;5.20;;;33.50;65.80;;;;;;5076051;28;20493;-82
2021/07/22 08:13:58;;;;;;;11.18;5.20;;;33.70;63.00;;;;;;5058726;28;20059;-83
2021/07/22 08:16:25;;;;;;;5.90;5.40;;;33.10;62.20;;;;;;5075849;28;20566;-82
2021/07/22 08:18:55;;;;;;;5.70;5.10;;;31.30;62.70;;;;;;5076071;28;20052;-83
2021/07/22 08:21:22;;;;;;;4.93;4.47;;;31.60;65.40;;;;;;5074642;28;20054;-82
2021/07/22 08:23:49;;;;;;;6.05;5.45;;;32.90;62.60;;;;;;5075821;28;20082;-82
2021/07/22 08:26:16;;;;;;;5.88;5.25;;;33.00;63.50;;;;;;5074517;28;20091;-82
2021/07/22 08:28:42;;;;;;;5.53;4.93;;;32.40;62.30;;;;;;5074272;28;20049;-83
2021/07/22 08:31:09;;;;;;;4.70;4.40;;;32.30;60.50;;;;;;5074361;28;20054;-82
2021/07/22 08:33:36;;;;;;;5.38;4.57;;;31.80;62.70;;;;;;5074262;28;20054;-82
2021/07/22 08:36:03;;;;;;;5.70;4.80;;;32.20;64.20;;;;;;5075783;28;20056;-83
2021/07/22 08:38:30;;;;;;;8.73;4.78;;;;;;;;;;5075587;28;20488;-83
2021/07/22 08:40:57;;;;;;;5.57;4.70;;;33.80;60.90;;;;;;5075655;28;20048;-83
2021/07/22 08:43:26;;;;;;;4.93;4.43;;;34.70;57.50;;;;;;5075350;28;20048;-83
2021/07/22 08:45:55;;;;;;;5.28;4.43;;;34.40;59.10;;;;;;5074442;28;20084;-84
2021/07/22 08:48:21;;;;;;;5.32;4.82;;;35.50;58.10;;;;;;5075803;28;20127;-83
2021/07/22 08:50:48;;;;;;;7.00;4.20;;;35.30;56.50;;;;;;5074279;28;20549;-83
2021/07/22 08:53:16;;;;;;;5.25;4.35;;;37.20;54.50;;;;;;5074099;28;20063;-84
2021/07/22 08:55:47;;;;;;;5.95;4.72;;;38.60;52.70;;;;;;5074039;28;20096;-84
2021/07/22 08:58:14;;;;;;;4.30;4.00;;;38.10;49.70;;;;;;5074257;28;20045;-83
2021/07/22 09:00:42;;;;;;;8.00;5.00;;;37.70;51.40;;;;;;5075420;28;20159;-84
2021/07/22 09:03:13;;;;;;;5.18;4.68;;;37.60;48.60;;;;;;5075198;28;20052;-83
2021/07/22 09:05:41;;;;;;;9.10;4.88;;;35.20;53.10;;;;;;5089641;28;20045;-83
2021/07/22 09:08:08;;;;;;;6.05;4.38;;;35.40;53.90;;;;;;5084703;28;20056;-84
2021/07/22 09:10:34;;;;;;;5.93;4.70;;;36.30;52.00;;;;;;5073826;28;20051;-85
2021/07/22 09:13:02;;;;;;;4.95;4.55;;;35.50;51.80;;;;;;5074343;28;20055;-84
2021/07/22 09:15:36;;;;;;;5.93;5.32;;;33.70;52.20;;;;;;5076002;28;20072;-85
2021/07/22 09:18:20;;;;;;;5.30;4.90;;;32.20;53.20;;;;;;5073607;28;20129;-83
2021/07/22 09:20:47;;;;;;;7.45;5.50;;;30.90;55.80;;;;;;5074501;28;20052;-85
2021/07/22 09:23:22;;;;;;;6.90;5.28;;;30.00;58.40;;;;;;5074532;28;20044;-83
2021/07/22 09:25:50;;;;;;;6.18;5.57;;;29.70;59.90;;;;;;5073253;28;20123;-82
2021/07/22 09:28:23;;;;;;;5.93;5.00;;;30.30;58.90;;;;;;5073253;28;20048;-82
2021/07/22 09:31:01;;;;;;;5.00;4.50;;;31.10;57.80;;;;;;5073647;28;20054;-84
2021/07/22 09:33:38;;;;;;;7.38;4.95;;;33.20;55.00;;;;;;5073535;28;20416;-85
2021/07/22 09:36:07;;;;;;;6.30;4.82;;;35.20;51.90;;;;;;5073482;28;20507;-82
2021/07/22 09:38:34;;;;;;;7.60;5.53;;;35.60;52.20;;;;;;5073185;28;20056;-84
2021/07/22 09:41:01;;;;;;;5.47;4.97;;;36.50;49.70;;;;;;5074415;28;20120;-83
2021/07/22 09:43:39;;;;;;;5.05;4.38;;;37.80;50.10;;;;;;5072770;28;20056;-82
2021/07/22 09:46:07;;;;;;;6.22;4.63;;;39.20;48.10;;;;;;5074013;28;20119;-82
2021/07/22 09:48:34;;;;;;;5.60;4.90;;;39.70;46.40;;;;;;5073932;28;20389;-83
2021/07/22 09:51:01;;;;;;;8.15;5.30;;;39.60;46.40;;;;;;5074481;28;20078;-81
2021/07/22 09:53:28;;;;;;;22.83;7.45;;;40.90;45.30;;;;;;5074254;28;20049;-84
2021/07/22 09:55:56;;;;;;;5.32;4.47;;;40.10;44.00;;;;;;5072670;28;20409;-85
2021/07/22 09:58:23;;;;;;;5.97;4.70;;;38.30;45.50;;;;;;5072829;28;20044;-83
2021/07/22 10:00:51;;;;;;;5.00;4.50;;;37.40;47.20;;;;;;5073728;28;20049;-82
2021/07/22 10:03:23;;;;;;;5.50;5.00;;;36.90;48.00;;;;;;5072549;28;20390;-83
2021/07/22 10:05:55;;;;;;;5.18;4.78;;;35.70;48.70;;;;;;5073753;28;20158;-84
2021/07/22 10:08:23;;;;;;;5.82;4.80;;;34.30;51.00;;;;;;5072814;28;20488;-82
2021/07/22 10:10:51;;;;;;;6.07;4.93;;;33.60;52.20;;;;;;5072673;28;20140;-83
2021/07/22 10:13:36;;;;;;;5.38;4.90;;;32.90;52.10;;;;;;5072589;28;20095;-82
2021/07/22 10:16:09;;;;;;;8.05;5.28;;;31.90;53.80;;;;;;5073453;28;20071;-82
2021/07/22 10:18:43;;;;;;;6.93;5.27;;;32.60;53.10;;;;;;5072197;28;20067;-84
2021/07/22 10:21:11;;;;;;;8.38;5.20;;;33.10;53.40;;;;;;5072287;28;20497;-86
2021/07/22 10:23:39;;;;;;;5.75;5.15;;;34.40;52.50;;;;;;5072779;28;20485;-83
2021/07/22 10:26:07;;;;;;;5.53;4.97;;;36.20;50.20;;;;;;5092252;28;20080;-82
2021/07/22 10:28:34;;;;;;;5.43;4.93;;;38.10;46.80;;;;;;5073902;28;20080;-82
2021/07/22 10:31:08;;;;;;;5.93;5.43;;;39.00;47.80;;;;;;5072319;28;20051;-82
2021/07/22 10:33:37;;;;;;;5.78;5.28;;;38.60;45.30;;;;;;5072293;28;20048;-83
2021/07/22 10:36:06;;;;;;;6.25;5.22;;;37.60;45.50;;;;;;5073372;28;20048;-84
2021/07/22 10:38:44;;;;;;;44.03;8.45;;;38.30;46.70;;;;;;5073350;28;20436;-83
2021/07/22 10:41:36;;;;;;;5.88;5.38;;;38.80;45.00;;;;;;5072617;28;20080;-86
2021/07/22 10:44:15;;;;;;;5.97;5.28;;;38.50;46.30;;;;;;5072573;28;20544;-87
2021/07/22 10:46:56;;;;;;;8.63;5.18;;;37.10;45.60;;;;;;5072565;28;20045;-84
2021/07/22 10:49:37;;;;;;;5.72;4.85;;;36.90;47.40;;;;;;5071950;28;20489;-83
2021/07/22 10:52:06;;;;;;;8.65;5.20;;;37.20;47.10;;;;;;5072293;28;20105;-84
2021/07/22 10:54:38;;;;;;;6.35;5.30;;;36.10;48.10;;;;;;5072011;28;20051;-82
2021/07/22 10:57:06;;;;;;;5.97;5.50;;;36.20;49.10;;;;;;5071892;28;20212;-82
2021/07/22 10:59:53;;;;;;;5.15;4.60;;;37.30;47.30;;;;;;5071835;28;20102;-82
2021/07/22 11:02:42;;;;;;;5.38;4.93;;;38.10;46.60;;;;;;5071629;28;20481;-82
2021/07/22 11:05:23;;;;;;;5.35;4.95;;;38.50;47.50;;;;;;5071805;28;20048;-86
2021/07/22 11:08:21;;;;;;;5.25;4.75;;;39.20;46.80;;;;;;5072147;28;20139;-84
2021/07/22 11:11:06;;;;;;;5.85;5.28;;;38.30;46.60;;;;;;5072500;28;20109;-85
2021/07/22 11:13:36;;;;;;;6.32;5.75;;;36.00;46.40;;;;;;5072006;28;20049;-83
2021/07/22 11:16:26;;;;;;;5.57;5.07;;;34.70;49.00;;;;;;5071823;28;20049;-82
2021/07/22 11:18:55;;;;;;;6.05;5.45;;;33.60;52.10;;;;;;5072671;28;20144;-83
2021/07/22 11:21:26;;;;;;;8.52;5.90;;;33.40;52.70;;;;;;5072927;28;20049;-84
2021/07/22 11:24:09;;;;;;;6.55;5.95;;;33.90;52.10;;;;;;5072660;28;20052;-84
2021/07/22 11:26:38;;;;;;;7.23;5.83;;;34.70;51.60;;;;;;5071742;28;20143;-83
2021/07/22 11:29:14;;;;;;;7.35;5.88;;;34.90;49.60;;;;;;5072352;28;20048;-84
2021/07/22 11:31:49;;;;;;;7.03;5.43;;;33.80;50.70;;;;;;5071972;28;20471;-85
2021/07/22 11:34:36;;;;;;;9.20;5.43;;;33.70;51.90;;;;;;5073257;28;20052;-84
2021/07/22 11:37:03;;;;;;;7.00;5.68;;;34.50;52.50;;;;;;5075824;28;20148;-81
2021/07/22 11:39:38;;;;;;;6.53;5.95;;;33.50;52.80;;;;;;5077406;28;20081;-81
2021/07/22 11:42:11;;;;;;;6.60;6.00;;;32.60;52.10;;;;;;5077186;28;20098;-82
2021/07/22 11:44:38;;;;;;;6.63;6.03;;;31.40;52.40;;;;;;5091863;28;20059;-85
2021/07/22 11:47:10;;;;;;;7.90;5.68;;;31.40;56.40;;;;;;5080327;28;20059;-84
2021/07/22 11:49:37;;;;;;;7.55;5.97;;;31.20;55.00;;;;;;5075277;28;20044;-84
2021/07/22 11:52:04;;;;;;;7.22;6.25;;;31.50;55.10;;;;;;5075574;28;20048;-85
2021/07/22 11:54:31;;;;;;;7.32;6.63;;;31.40;53.80;;;;;;5075401;28;20044;-83
2021/07/22 11:56:58;;;;;;;6.47;5.88;;;30.70;54.90;;;;;;5075266;28;20515;-83
2021/07/22 11:59:30;;;;;;;7.47;6.38;;;30.70;54.10;;;;;;5075221;28;20485;-82
2021/07/22 12:01:58;;;;;;;6.65;5.95;;;30.70;57.40;;;;;;5076208;28;20059;-81
2021/07/22 12:04:30;;;;;;;6.63;6.03;;;30.90;55.90;;;;;;5076202;28;20052;-82
2021/07/22 12:06:58;;;;;;;8.68;6.60;;;30.70;55.60;;;;;;5075138;28;20098;-81
2021/07/22 12:09:26;;;;;;;7.82;6.07;;;30.70;55.90;;;;;;5075059;28;20127;-82
2021/07/22 12:11:55;;;;;;;6.95;5.95;;;30.00;56.00;;;;;;5074665;28;20052;-81
2021/07/22 12:14:35;;;;;;;7.65;6.07;;;30.00;58.00;;;;;;5074911;28;20041;-82
2021/07/22 12:17:04;;;;;;;7.10;5.97;;;30.00;58.70;;;;;;5074501;28;20052;-83
2021/07/22 12:19:33;;;;;;;6.38;5.88;;;29.90;58.60;;;;;;5074809;28;20120;-81
2021/07/22 12:22:25;;;;;;;10.18;6.32;;;29.90;58.20;;;;;;5074991;28;20055;-82
2021/07/22 12:25:08;;;;;;;7.00;6.40;;;30.00;59.30;;;;;;5074830;28;20071;-82
2021/07/22 12:27:38;;;;;;;7.13;6.43;;;30.00;59.20;;;;;;5074616;28;20044;-82
2021/07/22 12:30:13;;;;;;;6.82;6.18;;;30.10;56.90;;;;;;5074769;28;20048;-83
2021/07/22 12:32:59;;;;;;;7.03;6.30;;;29.50;58.30;;;;;;5074336;28;20045;-82
2021/07/22 12:35:34;;;;;;;7.00;6.30;;;29.20;58.20;;;;;;5074296;28;20059;-84
2021/07/22 12:38:04;;;;;;;10.85;6.38;;;29.10;59.10;;;;;;5074766;28;20074;-81
2021/07/22 12:40:44;;;;;;;7.18;6.22;;;29.00;59.30;;;;;;5074594;28;20060;-82
2021/07/22 12:43:13;;;;;;;7.78;6.55;;;29.20;59.50;;;;;;5075387;28;20053;-85
2021/07/22 12:45:42;;;;;;;7.45;6.72;;;29.10;60.00;;;;;;5074892;28;20464;-83